Asian Infinity — 3EVP3 — position and weather

sailwx.info

Track history (hours):
 
Tides and Currents Weather Stations Pressure Air Temp Water Temp Dewpoint Dewpoint Depression Visibility Wind Speed Wind Dir Waves Ship Positions

Asian Infinity

Last reported at 2014-Dec-20 16:06 UTC. Time now 2014-Dec-23 00:11 UTC.
Position N 37°20' E 122°53'.

Length 104 m; draft 7.2 m.

Type: Ship (hazmat cat A). MMSI: 351868000.

Date/timePositionNaut miles runAvg speedWind from/ knotsBaromVisibWave heightAir tempDewpointWater temp
2014-Dec-20 16:06N 37°20' E 122°53'5 8.1
2014-Dec-20 15:26N 37°15' E 122°52'7 8.0
2014-Dec-20 14:33N 37°08' E 122°53'8 8.1
2014-Dec-20 13:33N 36°60' E 122°53'9 8.5
2014-Dec-20 12:31N 36°51' E 122°53'346 8.7
2014-Dec-18 20:33N 31°06' E 122°24'9 9.3
2014-Dec-18 19:33N 31°09' E 122°14'1313.5
2014-Dec-18 18:34N 31°15' E 121°59'1313.1
2014-Dec-18 17:33N 31°19' E 121°45'1111.3
2014-Dec-18 16:33N 31°24' E 121°33'3 3.1
2014-Dec-18 15:33N 31°22' E 121°30'0 0.0
2014-Dec-18 14:30N 31°22' E 121°30'0 0.0
2014-Dec-18 13:30N 31°22' E 121°30'0 0.0
2014-Dec-18 12:33N 31°22' E 121°30'0 0.0
2014-Dec-18 11:30N 31°22' E 121°30'0 0.0
2014-Dec-18 10:30N 31°22' E 121°30'0 0.0
2014-Dec-18 09:33N 31°22' E 121°30'0 0.0
2014-Dec-18 08:30N 31°22' E 121°30'0 0.0
2014-Dec-18 07:27N 31°22' E 121°30'0 0.0
2014-Dec-18 06:24N 31°22' E 121°30'0 0.0
2014-Dec-18 05:32N 31°22' E 121°30'0 0.0
2014-Dec-18 04:33N 31°22' E 121°30'0 0.0
2014-Dec-18 03:30N 31°22' E 121°30'0 0.0
2014-Dec-18 02:29N 31°22' E 121°30'0 0.0
2014-Dec-18 01:27N 31°22' E 121°30'0 0.0
2014-Dec-18 00:30N 31°22' E 121°30'0 0.0
2014-Dec-17 23:29N 31°22' E 121°30'0 0.0
2014-Dec-17 22:30N 31°22' E 121°30'0 0.0
2014-Dec-17 21:30N 31°22' E 121°30'0 0.0
2014-Dec-17 20:30N 31°22' E 121°30'0 0.0
2014-Dec-17 19:30N 31°22' E 121°30'0 0.0
2014-Dec-17 18:23N 31°22' E 121°30'0 0.0
2014-Dec-17 17:30N 31°22' E 121°30'0 0.0
2014-Dec-17 16:30N 31°22' E 121°30'0 0.0
2014-Dec-17 15:33N 31°22' E 121°30'4 4.3
2014-Dec-17 14:33N 31°23' E 121°35'9 9.5
2014-Dec-17 13:33N 31°18' E 121°44'1211.5
2014-Dec-17 12:33N 31°10' E 121°53'1010.4
2014-Dec-17 11:33N 31°05' E 122°04'7 7.3
2014-Dec-17 10:33N 31°03' E 122°12'20 9.6
2014-Dec-17 08:26N 31°02' E 122°36'  
2014-Dec-14 16:12N 33°40' E 129°52'710.6
2014-Dec-14 15:34N 33°43' E 129°59'1110.5
2014-Dec-14 14:33N 33°49' E 130°10'229 8.4
2014-Dec-13 11:18N 34°31' E 134°42'7 8.0
2014-Dec-13 10:27N 34°34' E 134°49'6 7.0
2014-Dec-13 09:33N 34°37' E 134°56'6 6.0
2014-Dec-13 08:33N 34°36' E 135°03'8 8.2
2014-Dec-13 07:33N 34°37' E 135°13'5 5.4
2014-Dec-13 06:33N 34°42' E 135°15'0 0.0
2014-Dec-13 05:22N 34°42' E 135°15'0 0.0
2014-Dec-13 04:22N 34°42' E 135°15'0 0.0
2014-Dec-13 03:16N 34°42' E 135°15'0 0.0
2014-Dec-13 02:28N 34°42' E 135°15'0 0.0
2014-Dec-13 01:28N 34°42' E 135°15'0 0.0
2014-Dec-13 00:28N 34°42' E 135°15'0 0.0
2014-Dec-12 23:28N 34°42' E 135°15'0 0.0
2014-Dec-12 22:28N 34°42' E 135°15'0 0.0
2014-Dec-12 21:28N 34°42' E 135°15'0 0.0
2014-Dec-12 20:28N 34°42' E 135°15'0 0.0
2014-Dec-12 19:28N 34°42' E 135°15'0 0.0
2014-Dec-12 18:28N 34°42' E 135°15'0 0.0
2014-Dec-12 17:22N 34°42' E 135°15'0 0.0
2014-Dec-12 16:28N 34°42' E 135°15'0 0.0
2014-Dec-12 15:28N 34°42' E 135°15'0 0.0
2014-Dec-12 14:28N 34°42' E 135°15'0 0.0
2014-Dec-12 13:28N 34°42' E 135°15'0 0.0
2014-Dec-12 12:28N 34°42' E 135°15'0 0.0
2014-Dec-12 11:28N 34°42' E 135°15'0 0.0
2014-Dec-12 10:22N 34°42' E 135°15'0 0.0
2014-Dec-12 09:28N 34°42' E 135°15'0 0.0
2014-Dec-12 08:28N 34°42' E 135°15'0 0.0
2014-Dec-12 07:22N 34°42' E 135°15'0 0.0
2014-Dec-12 06:28N 34°42' E 135°15'0 0.0
2014-Dec-12 05:28N 34°42' E 135°15'0 0.0
2014-Dec-12 04:22N 34°42' E 135°15'0 0.0
2014-Dec-12 03:22N 34°42' E 135°15'0 0.0
2014-Dec-12 02:28N 34°42' E 135°15'0 0.0
2014-Dec-12 01:28N 34°42' E 135°15'0 0.0
2014-Dec-12 00:28N 34°42' E 135°15'0 0.0
2014-Dec-11 23:22N 34°42' E 135°15'0 0.0
2014-Dec-11 22:16N 34°42' E 135°15'0 0.0
2014-Dec-11 21:22N 34°42' E 135°15'0 0.0
2014-Dec-11 20:28N 34°42' E 135°15'0 0.0
2014-Dec-11 19:28N 34°42' E 135°15'0 0.0
2014-Dec-11 18:28N 34°42' E 135°15'0 0.0
2014-Dec-11 17:22N 34°42' E 135°15'0 0.0
2014-Dec-11 16:22N 34°42' E 135°15'0 0.0
2014-Dec-11 15:22N 34°42' E 135°15'0 0.0
2014-Dec-11 14:22N 34°42' E 135°15'0 0.0
2014-Dec-11 13:28N 34°42' E 135°15'0 0.0
2014-Dec-11 12:28N 34°42' E 135°15'0 0.0
2014-Dec-11 11:28N 34°42' E 135°15'0 0.0
2014-Dec-11 10:28N 34°42' E 135°15'0 0.0
2014-Dec-11 09:28N 34°42' E 135°15'0 0.0
2014-Dec-11 08:28N 34°42' E 135°15'0 0.0
2014-Dec-11 07:28N 34°42' E 135°15'0 0.0
2014-Dec-11 06:28N 34°42' E 135°15'0 0.0
2014-Dec-11 05:28N 34°42' E 135°15'0 0.0
2014-Dec-11 04:28N 34°42' E 135°15'0 0.0
2014-Dec-11 03:28N 34°42' E 135°15'0 0.0
2014-Dec-11 02:28N 34°42' E 135°15'0 0.0
2014-Dec-11 01:22N 34°42' E 135°15'0 0.0
2014-Dec-11 00:28N 34°42' E 135°15'0 0.0
2014-Dec-10 23:28N 34°42' E 135°15'0 0.0
2014-Dec-10 22:28N 34°42' E 135°15'0 0.0
2014-Dec-10 21:22N 34°42' E 135°15'0 0.0
2014-Dec-10 20:22N 34°42' E 135°15'0 0.0
2014-Dec-10 19:28N 34°42' E 135°15'0 0.0
2014-Dec-10 18:28N 34°42' E 135°15'0 0.0
2014-Dec-10 17:28N 34°42' E 135°15'0 0.0
2014-Dec-10 16:22N 34°42' E 135°15'  
Track history (hours):
 
Tides and Currents Weather Stations Pressure Air Temp Water Temp Dewpoint Dewpoint Depression Visibility Wind Speed Wind Dir Waves Ship Positions

Asian Infinity

Last reported at 2014-Dec-20 16:06 UTC. Time now 2014-Dec-23 00:11 UTC.
Position N 37°20' E 122°53'.

Length 104 m; draft 7.2 m.

Type: Ship (hazmat cat A). MMSI: 351868000.

Date/timePositionNaut miles runAvg speedWind from/ knotsBaromVisibWave heightAir tempDewpointWater temp
2014-Dec-20 16:06N 37°20' E 122°53'5 8.1
2014-Dec-20 15:26N 37°15' E 122°52'7 8.0
2014-Dec-20 14:33N 37°08' E 122°53'8 8.1
2014-Dec-20 13:33N 36°60' E 122°53'9 8.5
2014-Dec-20 12:31N 36°51' E 122°53'346 8.7
2014-Dec-18 20:33N 31°06' E 122°24'9 9.3
2014-Dec-18 19:33N 31°09' E 122°14'1313.5
2014-Dec-18 18:34N 31°15' E 121°59'1313.1
2014-Dec-18 17:33N 31°19' E 121°45'1111.3
2014-Dec-18 16:33N 31°24' E 121°33'3 3.1
2014-Dec-18 15:33N 31°22' E 121°30'0 0.0
2014-Dec-18 14:30N 31°22' E 121°30'0 0.0
2014-Dec-18 13:30N 31°22' E 121°30'0 0.0
2014-Dec-18 12:33N 31°22' E 121°30'0 0.0
2014-Dec-18 11:30N 31°22' E 121°30'0 0.0
2014-Dec-18 10:30N 31°22' E 121°30'0 0.0
2014-Dec-18 09:33N 31°22' E 121°30'0 0.0
2014-Dec-18 08:30N 31°22' E 121°30'0 0.0
2014-Dec-18 07:27N 31°22' E 121°30'0 0.0
2014-Dec-18 06:24N 31°22' E 121°30'0 0.0
2014-Dec-18 05:32N 31°22' E 121°30'0 0.0
2014-Dec-18 04:33N 31°22' E 121°30'0 0.0
2014-Dec-18 03:30N 31°22' E 121°30'0 0.0
2014-Dec-18 02:29N 31°22' E 121°30'0 0.0
2014-Dec-18 01:27N 31°22' E 121°30'0 0.0
2014-Dec-18 00:30N 31°22' E 121°30'0 0.0
2014-Dec-17 23:29N 31°22' E 121°30'0 0.0
2014-Dec-17 22:30N 31°22' E 121°30'0 0.0
2014-Dec-17 21:30N 31°22' E 121°30'0 0.0
2014-Dec-17 20:30N 31°22' E 121°30'0 0.0
2014-Dec-17 19:30N 31°22' E 121°30'0 0.0
2014-Dec-17 18:23N 31°22' E 121°30'0 0.0
2014-Dec-17 17:30N 31°22' E 121°30'0 0.0
2014-Dec-17 16:30N 31°22' E 121°30'0 0.0
2014-Dec-17 15:33N 31°22' E 121°30'4 4.3
2014-Dec-17 14:33N 31°23' E 121°35'9 9.5
2014-Dec-17 13:33N 31°18' E 121°44'1211.5
2014-Dec-17 12:33N 31°10' E 121°53'1010.4
2014-Dec-17 11:33N 31°05' E 122°04'7 7.3
2014-Dec-17 10:33N 31°03' E 122°12'20 9.6
2014-Dec-17 08:26N 31°02' E 122°36'  
2014-Dec-14 16:12N 33°40' E 129°52'710.6
2014-Dec-14 15:34N 33°43' E 129°59'1110.5
2014-Dec-14 14:33N 33°49' E 130°10'229 8.4
2014-Dec-13 11:18N 34°31' E 134°42'7 8.0
2014-Dec-13 10:27N 34°34' E 134°49'6 7.0
2014-Dec-13 09:33N 34°37' E 134°56'6 6.0
2014-Dec-13 08:33N 34°36' E 135°03'8 8.2
2014-Dec-13 07:33N 34°37' E 135°13'5 5.4
2014-Dec-13 06:33N 34°42' E 135°15'0 0.0
2014-Dec-13 05:22N 34°42' E 135°15'0 0.0
2014-Dec-13 04:22N 34°42' E 135°15'0 0.0
2014-Dec-13 03:16N 34°42' E 135°15'0 0.0
2014-Dec-13 02:28N 34°42' E 135°15'0 0.0
2014-Dec-13 01:28N 34°42' E 135°15'0 0.0
2014-Dec-13 00:28N 34°42' E 135°15'0 0.0
2014-Dec-12 23:28N 34°42' E 135°15'0 0.0
2014-Dec-12 22:28N 34°42' E 135°15'0 0.0
2014-Dec-12 21:28N 34°42' E 135°15'0 0.0
2014-Dec-12 20:28N 34°42' E 135°15'0 0.0
2014-Dec-12 19:28N 34°42' E 135°15'0 0.0
2014-Dec-12 18:28N 34°42' E 135°15'0 0.0
2014-Dec-12 17:22N 34°42' E 135°15'0 0.0
2014-Dec-12 16:28N 34°42' E 135°15'0 0.0
2014-Dec-12 15:28N 34°42' E 135°15'0 0.0
2014-Dec-12 14:28N 34°42' E 135°15'0 0.0
2014-Dec-12 13:28N 34°42' E 135°15'0 0.0
2014-Dec-12 12:28N 34°42' E 135°15'0 0.0
2014-Dec-12 11:28N 34°42' E 135°15'0 0.0
2014-Dec-12 10:22N 34°42' E 135°15'0 0.0
2014-Dec-12 09:28N 34°42' E 135°15'0 0.0
2014-Dec-12 08:28N 34°42' E 135°15'0 0.0
2014-Dec-12 07:22N 34°42' E 135°15'0 0.0
2014-Dec-12 06:28N 34°42' E 135°15'0 0.0
2014-Dec-12 05:28N 34°42' E 135°15'0 0.0
2014-Dec-12 04:22N 34°42' E 135°15'0 0.0
2014-Dec-12 03:22N 34°42' E 135°15'0 0.0
2014-Dec-12 02:28N 34°42' E 135°15'0 0.0
2014-Dec-12 01:28N 34°42' E 135°15'0 0.0
2014-Dec-12 00:28N 34°42' E 135°15'0 0.0
2014-Dec-11 23:22N 34°42' E 135°15'0 0.0
2014-Dec-11 22:16N 34°42' E 135°15'0 0.0
2014-Dec-11 21:22N 34°42' E 135°15'0 0.0
2014-Dec-11 20:28N 34°42' E 135°15'0 0.0
2014-Dec-11 19:28N 34°42' E 135°15'0 0.0
2014-Dec-11 18:28N 34°42' E 135°15'0 0.0
2014-Dec-11 17:22N 34°42' E 135°15'0 0.0
2014-Dec-11 16:22N 34°42' E 135°15'0 0.0
2014-Dec-11 15:22N 34°42' E 135°15'0 0.0
2014-Dec-11 14:22N 34°42' E 135°15'0 0.0
2014-Dec-11 13:28N 34°42' E 135°15'0 0.0
2014-Dec-11 12:28N 34°42' E 135°15'0 0.0
2014-Dec-11 11:28N 34°42' E 135°15'0 0.0
2014-Dec-11 10:28N 34°42' E 135°15'0 0.0
2014-Dec-11 09:28N 34°42' E 135°15'0 0.0
2014-Dec-11 08:28N 34°42' E 135°15'0 0.0
2014-Dec-11 07:28N 34°42' E 135°15'0 0.0
2014-Dec-11 06:28N 34°42' E 135°15'0 0.0
2014-Dec-11 05:28N 34°42' E 135°15'0 0.0
2014-Dec-11 04:28N 34°42' E 135°15'0 0.0
2014-Dec-11 03:28N 34°42' E 135°15'0 0.0
2014-Dec-11 02:28N 34°42' E 135°15'0 0.0
2014-Dec-11 01:22N 34°42' E 135°15'0 0.0
2014-Dec-11 00:28N 34°42' E 135°15'0 0.0
2014-Dec-10 23:28N 34°42' E 135°15'0 0.0
2014-Dec-10 22:28N 34°42' E 135°15'0 0.0
2014-Dec-10 21:22N 34°42' E 135°15'0 0.0
2014-Dec-10 20:22N 34°42' E 135°15'0 0.0
2014-Dec-10 19:28N 34°42' E 135°15'0 0.0
2014-Dec-10 18:28N 34°42' E 135°15'0 0.0
2014-Dec-10 17:28N 34°42' E 135°15'0 0.0
2014-Dec-10 16:22N 34°42' E 135°15'  

Dump ship's entire track history